Terminal Aerodrome Forecast
Issued by NWS Sterling, VA

Current Version | Previous Version | Graphics & Text | Print | Product List | Glossary On
Versions: 1 2 3 4 5 6 7 8 9 10 11 12 13 14 15 16 17 18 19 20 21 22 23 24 25 26 27 28 29 30
000
FTUS41 KLWX 200447 AAC
TAFIAD
TAF AMD
KIAD 200447Z 2005/2106 10015G22KT 2SM RA BR OVC005 WS020/11040KT
     FM200700 14014KT 3SM RA OVC008
     FM201000 16010KT 3SM -RA OVC008
     FM201200 20007KT P6SM OVC008
     FM201600 21010KT P6SM BKN050
     FM202100 20010KT 5SM -SHRA BKN070
     FM202200 21010KT 5SM -SHRA BKN030
     FM210100 22010KT P6SM OVC090
     FM210500 26009KT P6SM SCT090=

USA.gov is the U.S. government's official web portal to all federal, state and local government web resources and services.